Time;durP1;ratioP1;P1;durP2;ratioP2;P2;SDS_P1;SDS_P2;PMS_P1;PMS_P2;Temp;Humidity;BMP_temperature;BMP_pressure;BME280_temperature;BME280_humidity;BME280_pressure;Samples;Min_cycle;Max_cycle;Signal;HPM_P1;HPM_P2
2022/09/12 00:00:47;;;;;;;4.90;4.40;;;13.80;99.90;;;;;;5090389;28;20053;-67
2022/09/12 00:03:13;;;;;;;5.35;4.15;;;13.80;99.90;;;;;;5110337;28;20035;-65
2022/09/12 00:05:46;;;;;;;6.20;4.63;;;13.70;99.90;;;;;;5129503;28;20091;-67
2022/09/12 00:08:13;;;;;;;5.40;4.90;;;13.70;99.90;;;;;;5115285;28;20057;-67
2022/09/12 00:10:43;;;;;;;5.13;4.63;;;13.70;99.90;;;;;;5108871;28;20050;-66
2022/09/12 00:13:10;;;;;;;5.80;5.07;;;13.70;99.90;;;;;;5112984;28;20043;-65
2022/09/12 00:15:40;;;;;;;5.32;4.80;;;13.70;99.90;;;;;;5108168;28;20044;-65
2022/09/12 00:18:08;;;;;;;4.82;4.43;;;13.70;99.90;;;;;;5113783;28;20092;-66
2022/09/12 00:20:33;;;;;;;5.00;4.50;;;13.70;99.90;;;;;;5112283;28;20051;-66
2022/09/12 00:22:59;;;;;;;4.55;3.70;;;13.70;99.90;;;;;;5110045;28;20035;-65
2022/09/12 00:25:25;;;;;;;6.10;5.50;;;13.70;99.90;;;;;;5106263;28;20043;-68
2022/09/12 00:27:51;;;;;;;6.53;5.93;;;13.70;99.90;;;;;;5104915;28;20035;-66
2022/09/12 00:30:16;;;;;;;5.68;5.18;;;13.60;99.90;;;;;;5106820;28;20126;-65
2022/09/12 00:32:42;;;;;;;7.15;6.25;;;13.60;99.90;;;;;;5107318;28;20036;-67
2022/09/12 00:35:07;;;;;;;7.20;6.15;;;13.60;99.90;;;;;;5107861;28;20040;-67
2022/09/12 00:37:34;;;;;;;8.50;7.35;;;13.60;99.90;;;;;;5106709;28;20666;-66
2022/09/12 00:39:59;;;;;;;8.30;7.50;;;13.60;99.90;;;;;;5118686;27;20046;-66
2022/09/12 00:42:25;;;;;;;8.50;7.72;;;13.60;99.90;;;;;;5113625;27;20044;-67
2022/09/12 00:44:52;;;;;;;8.20;7.35;;;13.50;99.90;;;;;;5115099;27;20039;-68
2022/09/12 00:47:28;;;;;;;8.43;7.72;;;13.50;99.90;;;;;;5093219;27;20126;-67
2022/09/12 00:50:08;;;;;;;9.52;8.63;;;13.50;99.90;;;;;;5118038;27;20574;-66
2022/09/12 00:52:53;;;;;;;10.52;9.52;;;13.50;99.90;;;;;;5123579;27;20040;-67
2022/09/12 00:55:41;;;;;;;10.40;9.45;;;13.50;99.90;;;;;;5118043;27;20509;-68
2022/09/12 00:58:19;;;;;;;10.35;9.38;;;13.50;99.90;;;;;;5126752;27;20039;-66
2022/09/12 01:00:46;;;;;;;10.77;9.63;;;13.40;99.90;;;;;;5107659;28;20130;-66
2022/09/12 01:03:14;;;;;;;10.75;9.65;;;13.50;99.90;;;;;;5110136;28;20085;-66
2022/09/12 01:05:46;;;;;;;10.32;9.23;;;13.50;99.90;;;;;;5102514;28;20024;-65
2022/09/12 01:08:12;;;;;;;;;;;13.50;99.90;;;;;;5119864;27;20044;-67
2022/09/12 01:10:40;;;;;;;9.23;8.25;;;13.50;99.90;;;;;;5114609;27;20337;-68
2022/09/12 01:13:08;;;;;;;10.70;9.57;;;13.50;99.90;;;;;;5107807;28;20130;-67
2022/09/12 01:15:36;;;;;;;12.43;10.75;;;13.50;99.90;;;;;;5130882;27;20103;-68
2022/09/12 01:18:01;;;;;;;13.00;11.73;;;13.50;99.90;;;;;;5112793;27;20601;-66
2022/09/12 01:20:48;;;;;;;13.07;11.68;;;13.50;99.90;;;;;;5118566;27;20201;-66
2022/09/12 01:23:28;;;;;;;12.55;10.98;;;13.40;99.90;;;;;;5112034;27;20058;-65
2022/09/12 01:26:09;;;;;;;12.80;11.55;;;13.40;99.90;;;;;;5121378;27;20382;-66
2022/09/12 01:29:02;;;;;;;14.02;12.52;;;13.40;99.90;;;;;;5111276;27;20143;-65
2022/09/12 01:31:46;;;;;;;15.30;13.75;;;13.40;99.90;;;;;;5109338;28;20044;-65
2022/09/12 01:34:19;;;;;;;14.50;13.00;;;13.40;99.90;;;;;;5107710;28;20502;-65
2022/09/12 01:37:14;;;;;;;15.70;14.02;;;13.40;99.90;;;;;;5111041;27;20034;-67
2022/09/12 01:40:00;;;;;;;18.90;14.18;;;13.40;99.90;;;;;;5109733;28;20169;-65
2022/09/12 01:42:55;;;;;;;16.55;14.75;;;13.40;99.90;;;;;;5123257;27;20055;-66
2022/09/12 01:45:38;;;;;;;20.95;16.65;;;13.40;99.90;;;;;;5109026;28;20489;-65
2022/09/12 01:48:03;;;;;;;20.05;17.23;;;13.50;99.90;;;;;;5114632;27;20107;-66
2022/09/12 01:50:32;;;;;;;20.70;16.88;;;13.50;99.90;;;;;;5107915;27;20039;-67
2022/09/12 01:53:08;;;;;;;19.48;17.48;;;13.50;99.90;;;;;;5120015;27;20035;-65
2022/09/12 01:55:42;;;;;;;23.27;17.88;;;13.50;99.90;;;;;;5109172;28;20036;-67
2022/09/12 01:58:17;;;;;;;20.67;17.63;;;13.50;99.90;;;;;;5109477;28;20485;-66
2022/09/12 02:01:07;;;;;;;22.65;18.77;;;13.50;99.90;;;;;;5115018;27;20039;-66
2022/09/12 02:03:43;;;;;;;23.05;20.55;;;13.50;99.90;;;;;;5109324;27;20554;-65
2022/09/12 02:06:16;;;;;;;25.90;21.17;;;13.50;99.90;;;;;;5092907;28;20043;-65
2022/09/12 02:08:44;;;;;;;;;;;13.50;99.90;;;;;;5114163;27;20032;-66
2022/09/12 02:11:11;;;;;;;26.00;20.23;;;13.50;99.90;;;;;;5116518;27;20360;-66
2022/09/12 02:13:41;;;;;;;23.98;20.60;;;13.50;99.90;;;;;;5113361;27;20082;-66
2022/09/12 02:16:16;;;;;;;23.27;19.50;;;13.50;99.90;;;;;;5106253;28;20050;-67
2022/09/12 02:18:52;;;;;;;25.73;21.92;;;13.50;99.90;;;;;;5119071;27;20529;-67
2022/09/12 02:21:20;;;;;;;23.38;20.33;;;13.50;99.90;;;;;;5110075;27;20547;-68
2022/09/12 02:23:52;;;;;;;23.85;21.35;;;13.50;99.90;;;;;;5106555;28;20040;-65
2022/09/12 02:26:28;;;;;;;28.80;23.38;;;13.50;99.90;;;;;;5094959;28;20525;-66
2022/09/12 02:28:54;;;;;;;27.80;23.05;;;13.50;99.90;;;;;;5105398;28;20111;-66
2022/09/12 02:31:27;;;;;;;36.47;26.27;;;13.60;99.90;;;;;;5119060;27;20027;-66
2022/09/12 02:34:07;;;;;;;27.85;23.88;;;13.60;99.90;;;;;;5112508;27;20039;-68
2022/09/12 02:36:54;;;;;;;25.77;21.85;;;13.60;99.90;;;;;;5116893;27;20150;-66
2022/09/12 02:39:20;;;;;;;25.65;21.60;;;13.60;99.90;;;;;;5112033;27;20039;-68
2022/09/12 02:41:58;;;;;;;24.63;21.48;;;13.60;99.90;;;;;;5117518;27;20448;-67
2022/09/12 02:44:25;;;;;;;23.20;20.48;;;13.60;99.90;;;;;;5111593;27;20042;-67
2022/09/12 02:46:57;;;;;;;26.13;22.17;;;13.60;99.90;;;;;;5113233;27;20683;-68
2022/09/12 02:49:23;;;;;;;29.20;24.27;;;13.60;99.90;;;;;;5107597;28;20096;-66
2022/09/12 02:51:49;;;;;;;30.90;24.20;;;13.60;99.90;;;;;;5108070;28;20043;-67
2022/09/12 02:54:18;;;;;;;28.55;24.33;;;13.60;99.90;;;;;;5109513;28;20122;-66
2022/09/12 02:56:44;;;;;;;28.52;23.58;;;13.50;99.90;;;;;;5114022;27;20039;-67
2022/09/12 02:59:14;;;;;;;28.58;23.25;;;13.50;99.90;;;;;;5091515;28;20048;-66
2022/09/12 03:02:14;;;;;;;29.73;24.50;;;13.50;99.90;;;;;;5108134;27;20039;-68
2022/09/12 03:04:51;;;;;;;29.02;24.35;;;13.60;99.90;;;;;;5114575;27;20498;-67
2022/09/12 03:07:42;;;;;;;30.58;25.48;;;13.60;99.90;;;;;;5125765;27;20093;-66
2022/09/12 03:10:26;;;;;;;28.23;23.75;;;13.60;99.90;;;;;;5108181;28;20067;-66
2022/09/12 03:13:05;;;;;;;28.27;23.42;;;13.60;99.90;;;;;;5102504;28;20047;-67
2022/09/12 03:16:04;;;;;;;28.77;22.95;;;13.60;99.90;;;;;;5109584;28;20047;-65
2022/09/12 03:18:49;;;;;;;30.15;23.13;;;13.60;99.90;;;;;;5107140;28;20043;-67
2022/09/12 03:21:20;;;;;;;24.63;21.67;;;13.60;99.90;;;;;;5088996;28;20055;-68
2022/09/12 03:24:00;;;;;;;28.47;22.30;;;13.60;99.90;;;;;;5104474;28;20089;-66
2022/09/12 03:26:35;;;;;;;26.27;21.38;;;13.60;99.90;;;;;;5108659;28;20052;-65
2022/09/12 03:29:05;;;;;;;28.45;23.50;;;13.50;99.90;;;;;;5108211;28;20035;-68
2022/09/12 03:31:31;;;;;;;27.38;21.58;;;13.50;99.90;;;;;;5108863;28;20047;-65
2022/09/12 03:33:58;;;;;;;25.75;21.52;;;13.50;99.90;;;;;;5107000;27;20035;-66
2022/09/12 03:36:26;;;;;;;22.83;19.63;;;13.50;99.90;;;;;;5128045;27;20078;-65
2022/09/12 03:38:52;;;;;;;24.08;20.25;;;13.50;99.90;;;;;;5120532;27;20032;-67
2022/09/12 03:41:18;;;;;;;21.55;19.25;;;13.50;99.90;;;;;;5113856;27;20092;-65
2022/09/12 03:43:44;;;;;;;24.25;21.42;;;13.50;99.90;;;;;;5110616;27;20054;-66
2022/09/12 03:46:10;;;;;;;24.70;20.83;;;13.40;99.90;;;;;;5129062;27;20047;-67
2022/09/12 03:48:35;;;;;;;24.73;20.17;;;13.40;99.90;;;;;;5111837;27;20105;-67
2022/09/12 03:51:05;;;;;;;23.10;19.42;;;13.40;99.90;;;;;;5108180;28;20481;-66
2022/09/12 03:53:31;;;;;;;25.42;19.92;;;13.30;99.90;;;;;;5110112;28;20080;-67
2022/09/12 03:55:57;;;;;;;23.02;20.17;;;13.30;99.90;;;;;;5102392;28;20048;-65
2022/09/12 03:58:24;;;;;;;22.98;19.60;;;13.30;99.90;;;;;;5111004;27;20032;-67
2022/09/12 04:00:49;;;;;;;23.52;19.77;;;13.20;99.90;;;;;;5119296;27;20492;-65
2022/09/12 04:03:15;;;;;;;23.63;20.10;;;13.20;99.90;;;;;;5107427;28;20175;-66
2022/09/12 04:05:41;;;;;;;22.20;18.15;;;13.20;99.90;;;;;;5112951;28;20035;-66
2022/09/12 04:08:07;;;;;;;21.33;18.98;;;13.20;99.90;;;;;;5114492;28;20044;-64
2022/09/12 04:10:32;;;;;;;23.08;19.92;;;13.10;99.90;;;;;;5119995;28;20963;-66
2022/09/12 04:12:58;;;;;;;20.20;18.00;;;13.10;99.90;;;;;;5116038;28;20044;-67
2022/09/12 04:15:23;;;;;;;23.00;20.02;;;13.10;99.90;;;;;;5116844;27;20043;-67
2022/09/12 04:17:49;;;;;;;25.98;21.00;;;13.10;99.90;;;;;;5113336;27;20091;-65
2022/09/12 04:20:15;;;;;;;25.65;21.75;;;13.10;99.90;;;;;;5109141;28;20043;-64
2022/09/12 04:22:41;;;;;;;25.77;20.80;;;13.10;99.90;;;;;;5110344;27;20461;-65
2022/09/12 04:25:08;;;;;;;24.02;20.40;;;13.10;99.90;;;;;;5119559;27;20443;-67
2022/09/12 04:27:34;;;;;;;24.75;20.05;;;13.10;99.90;;;;;;5110652;28;20078;-66
2022/09/12 04:30:01;;;;;;;26.50;21.02;;;13.10;99.90;;;;;;5112775;27;20063;-65
2022/09/12 04:32:27;;;;;;;26.42;22.42;;;13.10;99.90;;;;;;5111268;28;20054;-65
2022/09/12 04:34:53;;;;;;;28.33;23.13;;;13.10;99.90;;;;;;5109696;28;20155;-66
2022/09/12 04:37:19;;;;;;;26.88;21.73;;;13.10;99.90;;;;;;5098526;28;20526;-65
2022/09/12 04:39:44;;;;;;;25.85;21.67;;;13.10;99.90;;;;;;5111012;27;20047;-65
2022/09/12 04:42:10;;;;;;;29.20;22.85;;;13.10;99.90;;;;;;5122372;27;20048;-68
2022/09/12 04:44:36;;;;;;;27.13;22.42;;;13.10;99.90;;;;;;5113402;27;20095;-65
2022/09/12 04:47:02;;;;;;;25.25;21.30;;;13.10;99.90;;;;;;5127933;27;20051;-67
2022/09/12 04:49:27;;;;;;;24.50;20.42;;;13.20;99.90;;;;;;5131856;27;20050;-65
2022/09/12 04:51:54;;;;;;;28.80;21.77;;;13.20;99.90;;;;;;5110935;28;20418;-67
2022/09/12 04:54:20;;;;;;;30.75;22.63;;;13.20;99.90;;;;;;5109142;28;20122;-67
2022/09/12 04:56:48;;;;;;;27.70;22.60;;;13.20;99.90;;;;;;5110977;28;20039;-66
2022/09/12 04:59:16;;;;;;;33.15;24.33;;;13.20;99.90;;;;;;5110881;28;20035;-67
2022/09/12 05:01:42;;;;;;;31.42;23.15;;;13.30;99.90;;;;;;5119038;27;20062;-66
2022/09/12 05:04:10;;;;;;;27.45;22.67;;;13.30;99.90;;;;;;5095774;28;20043;-66
2022/09/12 05:06:37;;;;;;;29.48;22.33;;;13.30;99.90;;;;;;5110585;28;20096;-66
2022/09/12 05:09:05;;;;;;;28.20;22.83;;;13.30;99.90;;;;;;5105616;27;20057;-66
2022/09/12 05:11:34;;;;;;;30.30;21.52;;;13.30;99.90;;;;;;5132027;27;20039;-65
2022/09/12 05:13:59;;;;;;;27.10;21.70;;;13.40;99.90;;;;;;5110322;27;20051;-67
2022/09/12 05:16:27;;;;;;;30.48;21.55;;;13.40;99.90;;;;;;5105167;28;20043;-66
2022/09/12 05:18:54;;;;;;;26.45;21.35;;;13.40;99.90;;;;;;5109389;28;20552;-66
2022/09/12 05:21:22;;;;;;;28.75;23.77;;;13.40;99.90;;;;;;5131035;27;20397;-66
2022/09/12 05:23:51;;;;;;;29.75;23.13;;;13.40;99.90;;;;;;5090413;28;20056;-67
2022/09/12 05:26:17;;;;;;;28.90;22.48;;;13.50;99.90;;;;;;5097767;27;20135;-65
2022/09/12 05:28:43;;;;;;;29.35;23.75;;;13.50;99.90;;;;;;5108769;28;20056;-65
2022/09/12 05:31:21;;;;;;;31.75;22.77;;;13.60;99.90;;;;;;5111956;28;20069;-67
2022/09/12 05:33:48;;;;;;;31.17;23.33;;;13.60;99.90;;;;;;5111936;28;20040;-67
2022/09/12 05:36:20;;;;;;;28.85;22.67;;;13.70;99.90;;;;;;5130911;27;20122;-66
2022/09/12 05:38:46;;;;;;;29.13;24.35;;;13.70;99.90;;;;;;5115875;27;20036;-66
2022/09/12 05:41:14;;;;;;;29.40;24.27;;;13.70;99.90;;;;;;5114599;27;20058;-66
2022/09/12 05:43:41;;;;;;;34.30;25.90;;;13.80;99.90;;;;;;5118781;27;20474;-65
2022/09/12 05:46:13;;;;;;;35.58;27.05;;;13.80;99.90;;;;;;5118347;27;20062;-66
2022/09/12 05:48:40;;;;;;;35.40;26.83;;;13.80;99.90;;;;;;5112258;28;20122;-66
2022/09/12 05:51:12;;;;;;;34.75;27.17;;;13.90;99.90;;;;;;5119790;27;20044;-66
2022/09/12 05:53:39;;;;;;;37.42;27.85;;;13.90;99.90;;;;;;5109955;28;20039;-67
2022/09/12 05:56:14;;;;;;;36.25;29.05;;;13.90;99.90;;;;;;5107538;28;20044;-66
2022/09/12 05:58:42;;;;;;;38.22;28.95;;;13.90;99.90;;;;;;5108159;27;20134;-65
2022/09/12 06:01:11;;;;;;;37.47;28.42;;;13.90;99.90;;;;;;5116816;27;20075;-66
2022/09/12 06:03:45;;;;;;;39.75;29.63;;;14.00;99.90;;;;;;5093883;28;20040;-64
2022/09/12 06:06:14;;;;;;;39.58;30.15;;;14.00;99.90;;;;;;5120753;27;20118;-65
2022/09/12 06:08:42;;;;;;;34.97;27.23;;;14.00;99.90;;;;;;5108768;28;20087;-66
2022/09/12 06:11:13;;;;;;;42.78;31.23;;;14.00;99.90;;;;;;5118175;27;20044;-65
2022/09/12 06:13:41;;;;;;;40.25;30.92;;;14.00;99.90;;;;;;5130670;27;20389;-66
2022/09/12 06:16:18;;;;;;;45.38;32.20;;;14.10;99.90;;;;;;5113087;27;20042;-66
2022/09/12 06:18:48;;;;;;;42.28;31.05;;;14.10;99.90;;;;;;5122910;27;20049;-66
2022/09/12 06:21:15;;;;;;;44.20;31.10;;;14.10;99.90;;;;;;5108732;28;20044;-68
2022/09/12 06:23:41;;;;;;;43.45;31.77;;;14.10;99.90;;;;;;5110836;27;20100;-66
2022/09/12 06:26:09;;;;;;;47.03;32.47;;;14.10;99.90;;;;;;5127499;27;20043;-68
2022/09/12 06:28:36;;;;;;;52.40;34.05;;;14.10;99.90;;;;;;5109620;28;20138;-65
2022/09/12 06:31:27;;;;;;;43.10;32.25;;;14.10;99.90;;;;;;5105673;28;20035;-67
2022/09/12 06:33:54;;;;;;;45.38;32.65;;;14.20;99.90;;;;;;5113338;27;20432;-68
2022/09/12 06:36:25;;;;;;;44.25;31.23;;;14.20;99.90;;;;;;5110836;27;20032;-66
2022/09/12 06:38:56;;;;;;;43.88;32.85;;;14.20;99.90;;;;;;5092441;28;20043;-66
2022/09/12 06:41:23;;;;;;;48.25;33.90;;;14.20;99.90;;;;;;5110522;27;20126;-68
2022/09/12 06:43:49;;;;;;;45.25;33.03;;;14.30;99.90;;;;;;5110226;27;20031;-67
2022/09/12 06:46:14;;;;;;;53.80;35.30;;;14.20;99.90;;;;;;5110732;28;20427;-66
2022/09/12 06:48:40;;;;;;;46.03;33.80;;;14.30;99.90;;;;;;5109879;28;20047;-69
2022/09/12 06:51:10;;;;;;;48.03;34.55;;;14.30;99.90;;;;;;5118061;27;20050;-68
2022/09/12 06:53:37;;;;;;;51.42;34.95;;;14.30;99.90;;;;;;5110687;27;20047;-67
2022/09/12 06:56:08;;;;;;;50.05;34.15;;;14.30;99.90;;;;;;5098819;28;20050;-67
2022/09/12 06:58:35;;;;;;;49.10;33.00;;;14.40;99.90;;;;;;5129690;27;20117;-66
2022/09/12 07:01:06;;;;;;;52.30;34.15;;;14.40;99.90;;;;;;5130873;27;20540;-68
2022/09/12 07:03:33;;;;;;;47.90;33.95;;;14.40;99.90;;;;;;5130509;27;20879;-68
2022/09/12 07:06:13;;;;;;;48.40;33.60;;;14.40;99.90;;;;;;5121696;27;20043;-66
2022/09/12 07:08:39;;;;;;;49.22;32.95;;;14.50;99.90;;;;;;5114330;27;20040;-65
2022/09/12 07:11:11;;;;;;;45.45;32.78;;;14.50;99.90;;;;;;5130340;27;20047;-66
2022/09/12 07:13:37;;;;;;;50.47;34.63;;;14.50;99.90;;;;;;5130449;27;20091;-66
2022/09/12 07:16:05;;;;;;;47.65;34.35;;;14.50;99.90;;;;;;5108905;28;20055;-65
2022/09/12 07:18:31;;;;;;;45.80;33.20;;;14.60;99.90;;;;;;5106953;28;20067;-67
2022/09/12 07:21:04;;;;;;;50.42;35.15;;;14.60;99.90;;;;;;5129890;27;20042;-68
2022/09/12 07:23:30;;;;;;;50.45;34.42;;;14.70;99.90;;;;;;5130264;27;20039;-67
2022/09/12 07:25:57;;;;;;;48.63;34.83;;;14.80;99.90;;;;;;5112590;27;20096;-67
2022/09/12 07:28:24;;;;;;;48.55;34.47;;;14.80;99.90;;;;;;5111760;27;20031;-65
2022/09/12 07:30:52;;;;;;;45.58;32.75;;;14.90;99.90;;;;;;5130188;27;20058;-67
2022/09/12 07:33:20;;;;;;;46.70;32.92;;;14.90;99.90;;;;;;5130295;27;20442;-68
2022/09/12 07:35:45;;;;;;;49.45;34.92;;;15.00;99.90;;;;;;5130212;27;20035;-66
2022/09/12 07:38:11;;;;;;;49.38;34.65;;;15.00;99.90;;;;;;5118827;27;20035;-66
2022/09/12 07:40:37;;;;;;;51.00;34.53;;;15.00;99.90;;;;;;5112038;27;20055;-66
2022/09/12 07:43:02;;;;;;;51.05;35.33;;;15.10;99.90;;;;;;5129312;27;20039;-66
2022/09/12 07:45:28;;;;;;;53.33;34.08;;;15.10;99.90;;;;;;5130061;27;20184;-66
2022/09/12 07:47:54;;;;;;;54.60;35.67;;;15.20;99.90;;;;;;5126104;27;20467;-67
2022/09/12 07:50:20;;;;;;;55.00;35.47;;;15.20;99.90;;;;;;5126851;27;20038;-66
2022/09/12 07:52:45;;;;;;;55.53;34.72;;;15.30;99.90;;;;;;5130103;27;20390;-68
2022/09/12 07:55:11;;;;;;;53.85;34.67;;;15.40;99.90;;;;;;5130293;27;20071;-65
2022/09/12 07:57:37;;;;;;;56.92;37.33;;;15.50;99.90;;;;;;5130114;27;20030;-68
2022/09/12 08:00:04;;;;;;;51.15;35.40;;;15.50;99.90;;;;;;5113956;27;20367;-65
2022/09/12 08:02:30;;;;;;;57.33;36.42;;;15.60;99.90;;;;;;5092123;28;20043;-66
2022/09/12 08:04:56;;;;;;;57.15;35.85;;;15.60;99.90;;;;;;5127805;28;20042;-67
2022/09/12 08:07:21;;;;;;;56.13;36.55;;;15.70;99.90;;;;;;5129731;27;20112;-68
2022/09/12 08:09:47;;;;;;;57.22;36.40;;;15.80;99.90;;;;;;5121753;28;20127;-66
2022/09/12 08:12:15;;;;;;;53.60;36.58;;;15.90;99.90;;;;;;5109416;28;20447;-65
2022/09/12 08:14:41;;;;;;;56.20;36.10;;;15.90;99.90;;;;;;5112495;28;20087;-66
2022/09/12 08:17:06;;;;;;;53.78;35.83;;;16.20;99.90;;;;;;5129422;28;20527;-66
2022/09/12 08:19:32;;;;;;;55.88;35.33;;;16.50;99.90;;;;;;5130133;28;20042;-67
2022/09/12 08:21:58;;;;;;;51.60;33.30;;;16.80;99.90;;;;;;5110668;28;20125;-67
2022/09/12 08:24:23;;;;;;;51.20;34.03;;;17.00;99.90;;;;;;5115459;28;20035;-66
2022/09/12 08:26:50;;;;;;;48.65;34.08;;;17.00;99.90;;;;;;5125802;28;20033;-66
2022/09/12 08:29:16;;;;;;;52.38;33.63;;;17.00;99.90;;;;;;5129934;28;20043;-67
2022/09/12 08:31:42;;;;;;;50.55;33.65;;;17.10;99.90;;;;;;5120142;27;20493;-68
2022/09/12 08:34:08;;;;;;;48.33;32.40;;;17.10;99.90;;;;;;5127471;28;20035;-66
2022/09/12 08:36:34;;;;;;;44.40;31.88;;;17.20;99.90;;;;;;5130115;28;20535;-66
2022/09/12 08:39:04;;;;;;;48.75;32.70;;;17.20;99.90;;;;;;5129375;28;20042;-66
2022/09/12 08:41:35;;;;;;;51.97;33.45;;;17.20;99.90;;;;;;5125511;28;20050;-66
2022/09/12 08:44:28;;;;;;;44.33;29.48;;;17.30;99.90;;;;;;5110496;28;20047;-67
2022/09/12 08:47:26;;;;;;;46.83;32.25;;;17.30;99.90;;;;;;5129265;28;20085;-68
2022/09/12 08:50:07;;;;;;;49.17;31.90;;;17.40;99.90;;;;;;5129354;27;20028;-68
2022/09/12 08:53:01;;;;;;;47.15;32.35;;;17.50;99.90;;;;;;5122131;28;20036;-66
2022/09/12 08:55:32;;;;;;;47.15;31.88;;;17.60;99.90;;;;;;5111220;28;20134;-66
2022/09/12 08:58:00;;;;;;;47.88;31.83;;;17.60;99.90;;;;;;5130789;27;20056;-66
2022/09/12 09:00:39;;;;;;;47.97;33.33;;;17.70;99.90;;;;;;5130375;27;20070;-65
2022/09/12 09:03:25;;;;;;;46.28;31.15;;;17.80;99.90;;;;;;5109650;28;20516;-67
2022/09/12 09:06:15;;;;;;;47.05;31.92;;;17.80;99.90;;;;;;5112407;28;20051;-67
2022/09/12 09:08:46;;;;;;;47.13;31.63;;;18.00;99.90;;;;;;5033740;28;20099;-68
2022/09/12 09:11:56;;;;;;;47.80;32.85;;;18.10;99.90;;;;;;5034100;28;20073;-67
2022/09/12 09:14:53;;;;;;;50.30;34.40;;;18.20;99.90;;;;;;4991626;28;20434;-66
2022/09/12 09:17:33;;;;;;;44.67;30.85;;;18.30;99.90;;;;;;4975321;28;20038;-67
2022/09/12 09:20:21;;;;;;;48.08;31.30;;;18.40;99.90;;;;;;4975598;28;20073;-66
2022/09/12 09:22:55;;;;;;;44.65;31.00;;;18.50;99.90;;;;;;4975335;28;20042;-67
2022/09/12 09:25:28;;;;;;;41.35;30.15;;;18.70;99.90;;;;;;4974722;28;20050;-66
2022/09/12 09:28:06;;;;;;;46.33;31.02;;;19.00;99.90;;;;;;4975227;28;20042;-66
2022/09/12 09:30:34;;;;;;;41.67;29.05;;;19.20;99.90;;;;;;4974983;28;20546;-67
2022/09/12 09:33:03;;;;;;;43.35;28.70;;;19.40;99.90;;;;;;4974524;28;20050;-65
2022/09/12 09:35:47;;;;;;;41.95;28.70;;;19.40;99.90;;;;;;4990802;28;20054;-66
2022/09/12 09:38:21;;;;;;;40.88;28.60;;;19.40;99.90;;;;;;4974631;28;20054;-66
2022/09/12 09:40:56;;;;;;;39.38;29.08;;;19.40;99.90;;;;;;4974879;28;20054;-67
2022/09/12 09:43:26;;;;;;;40.33;27.80;;;19.50;99.90;;;;;;4974538;28;20050;-66
2022/09/12 09:45:52;;;;;;;39.85;27.90;;;19.60;99.90;;;;;;5058837;28;20047;-66
2022/09/12 09:48:28;;;;;;;40.60;28.10;;;19.70;99.90;;;;;;5132500;27;20485;-67
2022/09/12 09:50:58;;;;;;;38.97;27.02;;;19.70;99.90;;;;;;5132213;27;20488;-68
2022/09/12 09:53:36;;;;;;;36.55;26.35;;;19.60;99.90;;;;;;5132566;27;20039;-67
2022/09/12 09:56:09;;;;;;;37.65;25.85;;;19.80;99.90;;;;;;5129794;27;20511;-66
2022/09/12 09:58:35;;;;;;;36.22;25.95;;;20.30;99.90;;;;;;5094566;28;20067;-66
2022/09/12 10:01:04;;;;;;;33.85;25.95;;;20.60;99.90;;;;;;5131367;27;20038;-66
2022/09/12 10:03:37;;;;;;;37.58;26.15;;;20.90;99.90;;;;;;5132088;27;20473;-65
2022/09/12 10:06:31;;;;;;;38.05;25.75;;;21.10;99.90;;;;;;5131994;27;20501;-67
2022/09/12 10:09:17;;;;;;;35.05;24.65;;;21.60;99.90;;;;;;5111633;27;20055;-65
2022/09/12 10:11:44;;;;;;;31.60;25.70;;;21.90;99.90;;;;;;5101867;28;20153;-67
2022/09/12 10:14:33;;;;;;;39.95;26.45;;;22.10;99.90;;;;;;5111567;27;20048;-66
2022/09/12 10:17:02;;;;;;;32.42;24.00;;;22.30;99.90;;;;;;5112584;27;20039;-67
2022/09/12 10:19:37;;;;;;;32.75;22.70;;;22.50;99.90;;;;;;5110914;28;20035;-71
2022/09/12 10:22:04;;;;;;;28.15;20.70;;;22.90;99.90;;;;;;5108858;28;20127;-69
2022/09/12 10:24:38;;;;;;;25.75;20.55;;;23.20;99.90;;;;;;5109565;28;20039;-67
2022/09/12 10:27:12;;;;;;;24.63;19.35;;;23.40;99.90;;;;;;5109829;28;20039;-69
2022/09/12 10:29:44;;;;;;;26.65;21.08;;;23.60;99.90;;;;;;5124398;27;20481;-65
2022/09/12 10:32:12;;;;;;;25.35;19.08;;;23.90;99.90;;;;;;5130687;27;20053;-69
2022/09/12 10:34:42;;;;;;;28.77;20.35;;;24.00;99.90;;;;;;5110420;27;20142;-68
2022/09/12 10:37:38;;;;;;;26.08;18.50;;;24.10;99.90;;;;;;5108254;28;20088;-68
2022/09/12 10:40:18;;;;;;;27.70;20.38;;;24.20;99.90;;;;;;5113634;27;20046;-67
2022/09/12 10:42:50;;;;;;;27.75;20.20;;;24.20;99.90;;;;;;5131040;27;20049;-66
2022/09/12 10:45:23;;;;;;;26.38;20.00;;;24.20;99.90;;;;;;5107926;27;20038;-67
2022/09/12 10:47:50;;;;;;;29.88;21.52;;;24.40;99.90;;;;;;5111158;27;20073;-65
2022/09/12 10:50:19;;;;;;;26.50;19.35;;;24.50;99.90;;;;;;5130292;27;20077;-68
2022/09/12 10:52:46;;;;;;;24.80;19.67;;;24.60;99.90;;;;;;5092643;28;20050;-69
2022/09/12 10:55:14;;;;;;;26.65;21.40;;;24.80;99.90;;;;;;5116475;27;20082;-66
2022/09/12 10:58:04;;;;;;;27.23;20.48;;;24.90;99.90;;;;;;5122553;27;20118;-67
2022/09/12 11:00:33;;;;;;;24.30;18.70;;;24.80;99.90;;;;;;5128632;27;20051;-66
2022/09/12 11:03:14;;;;;;;23.77;17.63;;;24.80;99.90;;;;;;5131785;27;20031;-68
2022/09/12 11:05:56;;;;;;;21.15;17.67;;;24.90;99.90;;;;;;5119305;27;20139;-67
2022/09/12 11:08:56;;;;;;;25.63;19.65;;;25.10;99.90;;;;;;5111386;28;20040;-69
2022/09/12 11:11:27;;;;;;;21.55;16.17;;;25.00;99.80;;;;;;5107988;27;20554;-67
2022/09/12 11:14:22;;;;;;;17.48;13.63;;;25.00;99.20;;;;;;5115591;27;20154;-68
2022/09/12 11:16:58;;;;;;;17.48;14.27;;;25.00;99.90;;;;;;5116244;27;20043;-67
2022/09/12 11:19:41;;;;;;;21.15;15.98;;;25.20;99.30;;;;;;5121039;27;20104;-68
2022/09/12 11:22:09;;;;;;;21.48;15.32;;;25.20;99.00;;;;;;5128875;27;20043;-67
2022/09/12 11:25:03;;;;;;;18.50;15.68;;;25.30;98.90;;;;;;5119293;27;20400;-66
2022/09/12 11:27:49;;;;;;;17.92;13.98;;;25.10;98.80;;;;;;5100173;28;20118;-68
2022/09/12 11:30:17;;;;;;;21.00;15.90;;;25.00;98.70;;;;;;5113484;27;20043;-67
2022/09/12 11:33:00;;;;;;;20.30;14.88;;;24.90;99.20;;;;;;5123203;27;20091;-68
2022/09/12 11:35:32;;;;;;;20.50;14.98;;;24.80;99.20;;;;;;5100188;27;21460;-68
2022/09/12 11:38:28;;;;;;;15.60;12.48;;;24.60;98.90;;;;;;5122768;27;20546;-68
2022/09/12 11:41:06;;;;;;;13.45;10.45;;;24.50;99.40;;;;;;5109799;28;20082;-68
2022/09/12 11:43:34;;;;;;;12.23;8.88;;;24.40;99.10;;;;;;5107492;27;20106;-68
2022/09/12 11:46:23;;;;;;;11.75;8.52;;;24.10;98.50;;;;;;5110710;28;20042;-68
2022/09/12 11:49:18;;;;;;;12.57;8.20;;;24.20;98.40;;;;;;5114341;27;20482;-69
2022/09/12 11:52:02;;;;;;;12.38;10.93;;;24.20;98.30;;;;;;5128068;27;20096;-68
2022/09/12 11:54:44;;;;;;;12.15;10.35;;;24.40;98.30;;;;;;5129440;27;20043;-67
2022/09/12 11:57:19;;;;;;;13.07;11.32;;;24.40;97.50;;;;;;5129847;27;20049;-67
2022/09/12 12:00:08;;;;;;;14.45;10.25;;;24.40;97.20;;;;;;5110256;27;20420;-65
2022/09/12 12:02:57;;;;;;;10.90;8.55;;;24.40;97.30;;;;;;5110355;27;20047;-67
2022/09/12 12:05:35;;;;;;;13.52;8.93;;;24.10;96.40;;;;;;5092023;28;20120;-67
2022/09/12 12:08:03;;;;;;;9.05;7.47;;;24.10;97.60;;;;;;5125291;28;20485;-66
2022/09/12 12:10:41;;;;;;;13.40;9.38;;;24.10;97.60;;;;;;5109692;28;20067;-66
2022/09/12 12:13:21;;;;;;;11.05;9.50;;;24.20;97.80;;;;;;5109348;28;20565;-67
2022/09/12 12:15:58;;;;;;;14.18;9.35;;;24.10;97.60;;;;;;5109368;28;20096;-68
2022/09/12 12:18:29;;;;;;;12.55;8.88;;;23.90;97.00;;;;;;5112693;28;20404;-68
2022/09/12 12:20:55;;;;;;;10.40;8.75;;;23.80;97.60;;;;;;5117141;28;20039;-67
2022/09/12 12:23:22;;;;;;;10.82;8.82;;;23.70;97.70;;;;;;5127721;28;20039;-66
2022/09/12 12:25:59;;;;;;;12.88;10.43;;;23.70;98.00;;;;;;5111360;28;20061;-68
2022/09/12 12:28:40;;;;;;;14.07;10.63;;;23.70;98.10;;;;;;5126411;28;20046;-67
2022/09/12 12:31:07;;;;;;;12.43;10.48;;;23.60;97.90;;;;;;5108627;28;20038;-68
2022/09/12 12:33:33;;;;;;;11.13;9.23;;;23.60;98.10;;;;;;5109013;28;20130;-68
2022/09/12 12:35:58;;;;;;;18.27;12.43;;;23.60;98.40;;;;;;5117781;27;20126;-67
2022/09/12 12:38:35;;;;;;;13.95;11.40;;;23.70;98.30;;;;;;5112899;28;20040;-66
2022/09/12 12:41:16;;;;;;;14.63;11.70;;;23.60;98.50;;;;;;5115217;27;20393;-68
2022/09/12 12:43:49;;;;;;;13.55;10.98;;;23.60;98.70;;;;;;5112872;27;20390;-66
2022/09/12 12:46:19;;;;;;;15.27;10.93;;;23.70;99.00;;;;;;5116494;27;20180;-67
2022/09/12 12:48:51;;;;;;;13.45;10.70;;;23.70;99.10;;;;;;5111677;28;20048;-65
2022/09/12 12:51:25;;;;;;;15.45;12.38;;;23.60;98.20;;;;;;5108925;27;20044;-65
2022/09/12 12:53:52;;;;;;;12.80;11.32;;;23.50;98.40;;;;;;5120124;27;20130;-67
2022/09/12 12:56:47;;;;;;;13.95;11.27;;;23.40;98.80;;;;;;5109021;27;20042;-69